createdAt,value
2023-03-22T00:00:02.143Z,85.3
2023-03-22T00:01:02.531Z,85.2
2023-03-22T00:02:04.005Z,85.2
2023-03-22T00:03:01.866Z,85.1
2023-03-22T00:04:02.322Z,85.1
2023-03-22T00:05:01.732Z,85.1
2023-03-22T00:06:02.184Z,85.2
2023-03-22T00:07:03.387Z,85.2
2023-03-22T00:08:02.183Z,85.3
2023-03-22T00:09:03.322Z,85.3
2023-03-22T00:10:02.138Z,85.4
2023-03-22T00:11:01.633Z,85.4
2023-03-22T00:12:02.111Z,85.2
2023-03-22T00:13:01.550Z,85.2
2023-03-22T00:14:02.039Z,85.2
2023-03-22T00:15:01.522Z,85.1
2023-03-22T00:16:01.986Z,85.1
2023-03-22T00:17:01.479Z,85
2023-03-22T00:18:01.956Z,85
2023-03-22T00:19:01.481Z,85.1
2023-03-22T00:20:01.926Z,85.1
2023-03-22T00:21:01.401Z,85.1
2023-03-22T00:22:01.874Z,85.1
2023-03-22T00:23:01.418Z,85.1
2023-03-22T00:24:01.789Z,85.1
2023-03-22T00:25:02.274Z,85
2023-03-22T00:26:03.493Z,84.9
2023-03-22T00:27:03.959Z,85.1
2023-03-22T00:28:01.719Z,85
2023-03-22T00:29:03.927Z,85
2023-03-22T00:30:01.719Z,84.9
2023-03-22T00:31:03.908Z,84.9
2023-03-22T00:32:01.630Z,84.8
2023-03-22T00:33:02.137Z,84.9
2023-03-22T00:34:03.317Z,84.8
2023-03-22T00:35:03.791Z,84.8
2023-03-22T00:36:01.594Z,84.9
2023-03-22T00:37:03.719Z,84.9
2023-03-22T00:38:01.553Z,84.9
2023-03-22T00:39:02.046Z,84.9
2023-03-22T00:40:01.481Z,84.9
2023-03-22T00:41:03.740Z,84.9
2023-03-22T00:42:01.496Z,84.9
2023-03-22T00:43:03.635Z,84.9
2023-03-22T00:44:01.414Z,84.8
2023-03-22T00:45:03.582Z,84.7
2023-03-22T00:46:01.420Z,84.6
2023-03-22T00:47:01.933Z,84.5
2023-03-22T00:48:03.038Z,84.5
2023-03-22T00:49:01.804Z,84.4
2023-03-22T00:51:01.821Z,84.4
2023-03-22T00:52:02.296Z,84.4
2023-03-22T00:53:03.475Z,84.4
2023-03-22T00:54:02.199Z,84.3
2023-03-22T00:55:01.734Z,84.2
2023-03-22T00:56:02.209Z,84.2
2023-03-22T00:57:01.725Z,84.4
2023-03-22T00:58:02.136Z,84.6
2023-03-22T00:59:01.652Z,84.8
2023-03-22T01:00:04.759Z,84.8
2023-03-22T01:01:01.525Z,84.9
2023-03-22T01:02:01.967Z,84.8
2023-03-22T01:03:01.397Z,84.8
2023-03-22T01:04:01.889Z,84.9
2023-03-22T01:05:01.426Z,84.9
2023-03-22T01:06:01.874Z,85
2023-03-22T01:07:03.008Z,84.9
2023-03-22T01:08:01.799Z,84.9
2023-03-22T01:09:02.320Z,84.8
2023-03-22T01:10:01.814Z,84.8
2023-03-22T01:11:03.899Z,84.7
2023-03-22T01:12:01.702Z,84.7
2023-03-22T01:13:02.195Z,84.6
2023-03-22T01:14:01.721Z,84.6
2023-03-22T01:15:02.202Z,84.6
2023-03-22T01:16:03.374Z,84.5
2023-03-22T01:17:03.790Z,84.3
2023-03-22T01:18:01.640Z,84.3
2023-03-22T01:19:02.123Z,84.2
2023-03-22T01:20:01.567Z,84.1
2023-03-22T01:21:02.040Z,84.1
2023-03-22T01:22:01.498Z,84.1
2023-03-22T01:23:01.964Z,84.1
2023-03-22T01:24:01.487Z,83.9
2023-03-22T01:25:01.987Z,84
2023-03-22T01:26:01.435Z,84
2023-03-22T01:27:01.888Z,84.1
2023-03-22T01:28:03.102Z,84.1
2023-03-22T01:29:01.867Z,84
2023-03-22T01:30:01.321Z,84.1
2023-03-22T01:31:01.960Z,84
2023-03-22T01:32:01.318Z,84.1
2023-03-22T01:33:01.791Z,84.1
2023-03-22T01:34:02.291Z,84.1
2023-03-22T01:35:01.718Z,84
2023-03-22T01:36:03.946Z,83.9
2023-03-22T01:37:01.709Z,84
2023-03-22T01:38:02.186Z,84.1
2023-03-22T01:39:03.338Z,84.1
2023-03-22T01:40:03.786Z,84
2023-03-22T01:41:01.635Z,83.8
2023-03-22T01:42:02.112Z,83.8
2023-03-22T01:43:01.550Z,84
2023-03-22T01:44:02.037Z,84.2
2023-03-22T01:45:01.586Z,84.2
2023-03-22T01:46:02.070Z,84.2
2023-03-22T01:47:01.470Z,84
2023-03-22T01:48:02.003Z,83.9
2023-03-22T01:49:01.418Z,84.1
2023-03-22T01:50:01.990Z,84.2
2023-03-22T01:51:01.410Z,84.4
2023-03-22T01:52:01.871Z,84.6
2023-03-22T01:53:01.407Z,84.8
2023-03-22T01:54:01.879Z,84.9
2023-03-22T01:55:01.313Z,84.9
2023-03-22T01:56:01.815Z,84.9
2023-03-22T01:57:02.279Z,84.8
2023-03-22T01:58:01.804Z,84.7
2023-03-22T01:59:03.956Z,84.8
2023-03-22T02:00:01.725Z,84.8
2023-03-22T02:01:01.611Z,85
2023-03-22T02:02:02.042Z,85
2023-03-22T02:03:01.488Z,85
2023-03-22T02:04:01.969Z,84.9
2023-03-22T02:05:01.489Z,84.8
2023-03-22T02:06:01.992Z,84.8
2023-03-22T02:07:01.418Z,84.8
2023-03-22T02:08:01.872Z,84.9
2023-03-22T02:09:02.995Z,85.1
2023-03-22T02:10:01.885Z,85.2
2023-03-22T02:11:02.293Z,85.2
2023-03-22T02:12:01.836Z,85.1
2023-03-22T02:13:02.273Z,84.9
2023-03-22T02:14:01.716Z,84.8
2023-03-22T02:15:02.213Z,84.8
2023-03-22T02:16:01.763Z,84.9
2023-03-22T02:17:02.223Z,84.9
2023-03-22T02:18:01.639Z,85
2023-03-22T02:19:02.121Z,85
2023-03-22T02:20:01.637Z,85.1
2023-03-22T02:21:03.786Z,85.2
2023-03-22T02:22:03.257Z,85.3
2023-03-22T02:23:02.029Z,85.4
2023-03-22T02:24:01.573Z,85.6
2023-03-22T02:25:02.029Z,85.6
2023-03-22T02:26:01.479Z,85.4
2023-03-22T02:27:01.956Z,85.4
2023-03-22T02:28:01.488Z,85.5
2023-03-22T02:29:03.547Z,85.5
2023-03-22T02:30:01.432Z,85.7
2023-03-22T02:31:01.906Z,85.8
2023-03-22T02:32:01.391Z,85.9
2023-03-22T02:33:01.912Z,85.9
2023-03-22T02:34:03.001Z,85.9
2023-03-22T02:35:01.813Z,86
2023-03-22T02:36:02.268Z,86.1
2023-03-22T02:37:01.806Z,86.3
2023-03-22T02:38:03.881Z,86.4
2023-03-22T02:39:01.725Z,86.5
2023-03-22T02:40:03.880Z,86.5
2023-03-22T02:41:01.714Z,86.4
2023-03-22T02:42:02.221Z,86.3
2023-03-22T02:43:01.650Z,86.3
2023-03-22T02:44:02.132Z,86.2
2023-03-22T02:45:01.639Z,86
2023-03-22T02:46:02.115Z,85.8
2023-03-22T02:47:01.558Z,85.9
2023-03-22T02:48:02.062Z,86.1
2023-03-22T02:49:01.554Z,86.3
2023-03-22T02:50:02.033Z,86.2
2023-03-22T02:51:01.473Z,86.2
2023-03-22T02:52:03.632Z,86.1
2023-03-22T02:53:01.490Z,86.2
2023-03-22T02:54:01.965Z,86.1
2023-03-22T02:55:03.084Z,86.1
2023-03-22T02:56:03.572Z,85.9
2023-03-22T02:57:03.001Z,85.8
2023-03-22T02:58:03.515Z,85.8
2023-03-22T02:59:02.274Z,85.8
2023-03-22T03:00:01.818Z,85.9
2023-03-22T03:01:02.326Z,86
2023-03-22T03:02:01.888Z,86.2
2023-03-22T03:03:03.962Z,86.4
2023-03-22T03:04:01.719Z,86.5
2023-03-22T03:05:03.879Z,86.6
2023-03-22T03:06:01.734Z,86.6
2023-03-22T03:07:02.204Z,86.6
2023-03-22T03:08:03.304Z,86.6
2023-03-22T03:09:03.789Z,86.6
2023-03-22T03:10:03.224Z,86.7
2023-03-22T03:11:02.025Z,86.8
2023-03-22T03:12:01.577Z,86.9
2023-03-22T03:13:02.042Z,86.9
2023-03-22T03:14:01.585Z,87
2023-03-22T03:15:01.951Z,87
2023-03-22T03:16:01.540Z,87.1
2023-03-22T03:17:01.961Z,87.2
2023-03-22T03:18:01.465Z,87.3
2023-03-22T03:19:01.878Z,87.3
2023-03-22T03:20:02.996Z,87.2
2023-03-22T03:21:01.802Z,87.2
2023-03-22T03:23:01.812Z,87.3
2023-03-22T03:24:02.270Z,87.3
2023-03-22T03:25:01.801Z,87.3
2023-03-22T03:26:03.961Z,87.3
2023-03-22T03:27:03.390Z,87.3
2023-03-22T03:28:02.214Z,87.2
2023-03-22T03:29:01.715Z,87.2
2023-03-22T03:30:02.196Z,87.1
2023-03-22T03:31:03.327Z,87.1
2023-03-22T03:32:02.109Z,87
2023-03-22T03:33:01.649Z,87
2023-03-22T03:34:02.143Z,87
2023-03-22T03:35:01.584Z,87
2023-03-22T03:36:02.058Z,86.9
2023-03-22T03:37:03.235Z,86.9
2023-03-22T03:38:02.039Z,86.9
2023-03-22T03:39:01.477Z,86.9
2023-03-22T03:40:03.642Z,86.8
2023-03-22T03:41:01.487Z,86.8
2023-03-22T03:42:01.964Z,86.8
2023-03-22T03:43:01.410Z,86.8
2023-03-22T03:44:01.877Z,86.8
2023-03-22T03:45:03.018Z,86.7
2023-03-22T03:46:01.832Z,86.6
2023-03-22T03:47:02.280Z,86.5
2023-03-22T03:48:01.880Z,86.5
2023-03-22T03:49:02.286Z,86.6
2023-03-22T03:50:01.721Z,86.6
2023-03-22T03:51:03.897Z,86.6
2023-03-22T03:52:01.763Z,86.7
2023-03-22T03:53:03.891Z,86.7
2023-03-22T03:54:01.636Z,86.8
2023-03-22T03:55:02.114Z,86.8
2023-03-22T03:56:03.345Z,86.8
2023-03-22T03:57:03.989Z,86.9
2023-03-22T03:58:01.571Z,86.9
2023-03-22T03:59:02.038Z,86.9
2023-03-22T04:00:01.578Z,86.9
2023-03-22T04:01:02.047Z,86.8
2023-03-22T04:02:01.541Z,86.9
2023-03-22T04:03:01.963Z,86.9
2023-03-22T04:04:03.223Z,86.9
2023-03-22T04:05:01.960Z,87
2023-03-22T04:06:03.066Z,87.2
2023-03-22T04:07:03.571Z,87.2
2023-03-22T04:08:01.402Z,87.3
2023-03-22T04:09:01.882Z,87.4
2023-03-22T04:10:01.314Z,87.4
2023-03-22T04:11:01.798Z,87.4
2023-03-22T04:13:01.816Z,87.5
2023-03-22T04:14:02.282Z,87.5
2023-03-22T04:15:01.728Z,87.5
2023-03-22T04:16:02.204Z,87.3
2023-03-22T04:17:01.790Z,87.1
2023-03-22T04:18:02.224Z,87
2023-03-22T04:19:01.718Z,86.9
2023-03-22T04:20:03.679Z,86.9
2023-03-22T04:21:01.640Z,86.8
2023-03-22T04:22:02.109Z,86.8
2023-03-22T04:23:01.651Z,86.7
2023-03-22T04:24:03.826Z,86.7
2023-03-22T04:25:01.570Z,86.5
2023-03-22T04:26:02.048Z,86.5
2023-03-22T04:27:03.205Z,86.4
2023-03-22T04:28:03.709Z,86.3
2023-03-22T04:29:01.472Z,86.2
2023-03-22T04:30:02.001Z,86.2
2023-03-22T04:31:03.222Z,86.1
2023-03-22T04:32:03.546Z,86.1
2023-03-22T04:33:01.429Z,86.1
2023-03-22T04:34:01.885Z,85.9
2023-03-22T04:35:01.350Z,85.8
2023-03-22T04:36:04.447Z,85.7
2023-03-22T04:37:02.279Z,85.7
2023-03-22T04:38:03.484Z,85.6
2023-03-22T04:39:02.285Z,85.6
2023-03-22T04:40:03.397Z,85.7
2023-03-22T04:41:02.202Z,85.7
2023-03-22T04:42:03.390Z,85.7
2023-03-22T04:43:02.185Z,85.6
2023-03-22T04:44:01.637Z,85.6
2023-03-22T04:45:02.242Z,85.5
2023-03-22T04:46:01.730Z,85.3
2023-03-22T04:47:03.788Z,85.3
2023-03-22T04:48:01.635Z,85.2
2023-03-22T04:49:02.037Z,85.3
2023-03-22T04:50:01.566Z,85.3
2023-03-22T04:51:02.051Z,85.4
2023-03-22T04:52:01.500Z,85.4
2023-03-22T04:53:01.967Z,85.3
2023-03-22T04:54:01.479Z,85.2
2023-03-22T04:55:01.944Z,85.1
2023-03-22T04:56:03.091Z,85.1
2023-03-22T04:57:01.959Z,85.1
2023-03-22T04:58:01.434Z,85
2023-03-22T04:59:01.881Z,85
2023-03-22T05:00:01.401Z,84.9
2023-03-22T05:01:01.882Z,84.8
2023-03-22T05:02:01.504Z,84.7
2023-03-22T05:03:01.823Z,84.7
2023-03-22T05:04:02.277Z,84.7
2023-03-22T05:05:01.836Z,84.7
2023-03-22T05:06:02.289Z,84.5
2023-03-22T05:07:03.404Z,84.4
2023-03-22T05:08:03.888Z,84.4
2023-03-22T05:09:01.715Z,84.4
2023-03-22T05:10:02.213Z,84.4
2023-03-22T05:11:03.312Z,84.5
2023-03-22T05:12:02.118Z,84.5
2023-03-22T05:13:03.330Z,84.5
2023-03-22T05:14:02.132Z,84.5
2023-03-22T05:15:03.220Z,84.5
2023-03-22T05:16:02.157Z,84.5
2023-03-22T05:17:01.554Z,84.5
2023-03-22T05:18:02.019Z,84.5
2023-03-22T05:19:01.568Z,84.5
2023-03-22T05:20:02.048Z,84.4
2023-03-22T05:21:03.152Z,84.3
2023-03-22T05:22:02.169Z,84.2
2023-03-22T05:23:01.476Z,84.2
2023-03-22T05:24:01.975Z,84.2
2023-03-22T05:25:01.407Z,84.3
2023-03-22T05:26:02.019Z,84.3
2023-03-22T05:27:01.405Z,84.3
2023-03-22T05:28:03.544Z,84.3
2023-03-22T05:29:03.090Z,84.4
2023-03-22T05:30:01.863Z,84.4
2023-03-22T05:31:01.315Z,84.5
2023-03-22T05:32:01.840Z,84.6
2023-03-22T05:33:02.272Z,84.6
2023-03-22T05:34:01.798Z,84.7
2023-03-22T05:35:02.290Z,84.7
2023-03-22T05:36:01.726Z,84.7
2023-03-22T05:37:02.257Z,84.7
2023-03-22T05:38:01.737Z,84.7
2023-03-22T05:39:02.200Z,84.7
2023-03-22T05:40:01.692Z,84.6
2023-03-22T05:41:02.132Z,84.6
2023-03-22T05:42:01.647Z,84.5
2023-03-22T05:43:02.154Z,84.4
2023-03-22T05:44:03.331Z,84.3
2023-03-22T05:45:02.106Z,84.4
2023-03-22T05:46:03.221Z,84.4
2023-03-22T05:47:02.287Z,84.4
2023-03-22T05:48:01.612Z,84.4
2023-03-22T05:49:02.058Z,84.5
2023-03-22T05:50:01.552Z,84.6
2023-03-22T05:51:02.044Z,84.7
2023-03-22T05:52:01.478Z,84.8
2023-03-22T05:53:01.962Z,84.9
2023-03-22T05:54:01.481Z,84.8
2023-03-22T05:55:01.961Z,84.8
2023-03-22T05:56:01.419Z,84.7
2023-03-22T05:57:01.992Z,84.6
2023-03-22T05:58:01.399Z,84.6
2023-03-22T05:59:01.886Z,84.7
2023-03-22T06:00:03.085Z,84.7
2023-03-22T06:01:01.888Z,84.7
2023-03-22T06:02:01.441Z,84.8
2023-03-22T06:03:01.895Z,84.9
2023-03-22T06:04:03.040Z,85
2023-03-22T06:05:01.805Z,85
2023-03-22T06:06:02.285Z,84.8
2023-03-22T06:07:01.796Z,84.8
2023-03-22T06:08:02.285Z,84.7
2023-03-22T06:09:16.048Z,84.7
2023-03-22T06:10:03.926Z,84.7
2023-03-22T06:11:03.392Z,84.6
2023-03-22T06:12:02.117Z,84.5
2023-03-22T06:13:01.670Z,84.5
2023-03-22T06:14:02.120Z,84.3
2023-03-22T06:15:01.569Z,84.2
2023-03-22T06:16:02.093Z,84.2
2023-03-22T06:17:01.498Z,84.2
2023-03-22T06:18:03.648Z,84.1
2023-03-22T06:19:01.500Z,84.1
2023-03-22T06:20:03.645Z,84
2023-03-22T06:21:01.412Z,83.9
2023-03-22T06:22:01.973Z,83.9
2023-03-22T06:23:01.394Z,83.9
2023-03-22T06:24:01.886Z,83.8
2023-03-22T06:25:03.026Z,83.8
2023-03-22T06:26:01.812Z,83.8
2023-03-22T06:27:02.311Z,83.7
2023-03-22T06:28:03.491Z,83.7
2023-03-22T06:29:02.292Z,83.6
2023-03-22T06:30:03.398Z,83.7
2023-03-22T06:31:04.028Z,83.7
2023-03-22T06:32:01.750Z,83.8
2023-03-22T06:33:03.919Z,83.8
2023-03-22T06:34:01.646Z,83.9
2023-03-22T06:35:02.127Z,83.9
2023-03-22T06:36:01.640Z,84
2023-03-22T06:37:02.143Z,84
2023-03-22T06:38:01.566Z,84
2023-03-22T06:39:02.074Z,84
2023-03-22T06:40:01.570Z,84
2023-03-22T06:41:02.057Z,84
2023-03-22T06:42:01.482Z,84
2023-03-22T06:43:05.110Z,84
2023-03-22T06:44:01.512Z,84
2023-03-22T06:45:01.967Z,84
2023-03-22T06:46:01.457Z,84
2023-03-22T06:47:01.904Z,83.9
2023-03-22T06:48:01.609Z,84
2023-03-22T06:49:01.917Z,84
2023-03-22T06:50:03.001Z,84
2023-03-22T06:51:01.807Z,84
2023-03-22T06:52:02.293Z,84
2023-03-22T06:53:01.736Z,84.1
2023-03-22T06:54:02.229Z,84
2023-03-22T06:55:01.738Z,83.9
2023-03-22T06:56:03.886Z,83.9
2023-03-22T06:57:03.327Z,83.9
2023-03-22T06:58:03.806Z,84
2023-03-22T06:59:03.347Z,83.9
2023-03-22T07:00:02.119Z,83.9
2023-03-22T07:01:01.587Z,83.8
2023-03-22T07:02:03.729Z,83.8
2023-03-22T07:03:03.164Z,83.7
2023-03-22T07:04:02.156Z,83.7
2023-03-22T07:05:01.501Z,83.8
2023-03-22T07:06:01.979Z,83.7
2023-03-22T07:07:01.488Z,83.6
2023-03-22T07:08:01.894Z,83.5
2023-03-22T07:09:01.403Z,83.5
2023-03-22T07:10:01.897Z,83.2
2023-03-22T07:11:01.345Z,82.8
2023-03-22T07:12:01.805Z,82.3
2023-03-22T07:14:03.491Z,82
2023-03-22T07:15:02.284Z,82
2023-03-22T07:16:01.876Z,81.7
2023-03-22T07:17:03.989Z,81.5
2023-03-22T07:18:01.746Z,81.5
2023-03-22T07:19:02.211Z,81.1
2023-03-22T07:20:01.661Z,80.9
2023-03-22T07:21:02.208Z,80.5
2023-03-22T07:22:01.673Z,80.9
2023-03-22T07:23:02.138Z,81
2023-03-22T07:24:01.651Z,80.7
2023-03-22T07:25:03.805Z,81
2023-03-22T07:26:01.576Z,80.3
2023-03-22T07:27:02.046Z,79.6
2023-03-22T07:28:01.586Z,80.2
2023-03-22T07:29:02.049Z,79.5
2023-03-22T07:30:01.483Z,79.6
2023-03-22T07:31:01.954Z,78.3
2023-03-22T07:32:01.543Z,77.7
2023-03-22T07:33:01.971Z,78.7
2023-03-22T07:34:01.404Z,78.1
2023-03-22T07:35:01.880Z,77.4
2023-03-22T07:36:01.444Z,78.1
2023-03-22T07:37:01.877Z,77.1
2023-03-22T07:38:01.374Z,77.6
2023-03-22T07:39:01.809Z,76.9
2023-03-22T07:40:02.315Z,77.4
2023-03-22T07:41:01.791Z,76
2023-03-22T07:42:02.268Z,76.5
2023-03-22T07:43:01.728Z,76.2
2023-03-22T07:44:16.908Z,76.1
2023-03-22T07:45:03.510Z,75.5
2023-03-22T07:46:02.198Z,75.5
2023-03-22T07:47:01.656Z,76.6
2023-03-22T07:48:02.184Z,76.1
2023-03-22T07:49:01.645Z,75.9
2023-03-22T07:50:02.134Z,76.1
2023-03-22T07:51:01.550Z,75.3
2023-03-22T07:52:02.118Z,74.2
2023-03-22T07:53:01.556Z,75.2
2023-03-22T07:54:02.060Z,75.5
2023-03-22T07:55:01.496Z,74.5
2023-03-22T07:56:01.949Z,74.1
2023-03-22T07:57:01.515Z,74.5
2023-03-22T07:58:03.633Z,75.1
2023-03-22T07:59:01.484Z,74.5
2023-03-22T08:00:03.550Z,75.1
2023-03-22T08:01:01.431Z,75.1
2023-03-22T08:02:03.605Z,73.9
2023-03-22T08:03:02.369Z,74.4
2023-03-22T08:04:01.820Z,73.9
2023-03-22T08:05:02.291Z,73.6
2023-03-22T08:06:01.774Z,73.4
2023-03-22T08:07:02.224Z,73.3
2023-03-22T08:08:01.731Z,73.2
2023-03-22T08:09:04.056Z,73
2023-03-22T08:10:03.323Z,72.6
2023-03-22T08:11:02.158Z,72.3
2023-03-22T08:12:01.648Z,72
2023-03-22T08:13:03.799Z,72.9
2023-03-22T08:14:01.552Z,71.9
2023-03-22T08:15:02.053Z,72.8
2023-03-22T08:16:03.542Z,72.1
2023-03-22T08:17:03.726Z,72
2023-03-22T08:18:01.494Z,72
2023-03-22T08:19:01.968Z,72
2023-03-22T08:20:01.506Z,70.5
2023-03-22T08:21:01.969Z,71.5
2023-03-22T08:22:03.089Z,71.7
2023-03-22T08:23:01.905Z,70.7
2023-03-22T08:24:01.424Z,70.4
2023-03-22T08:25:03.482Z,71.1
2023-03-22T08:26:03.007Z,70.4
2023-03-22T08:27:01.830Z,71.1
2023-03-22T08:28:02.342Z,71
2023-03-22T08:29:01.741Z,70.8
2023-03-22T08:30:03.896Z,69.5
2023-03-22T08:31:01.729Z,70.8
2023-03-22T08:32:02.341Z,71.2
2023-03-22T08:33:01.638Z,70.6
2023-03-22T08:34:02.146Z,71.9
2023-03-22T08:35:01.653Z,73.1
2023-03-22T08:36:03.805Z,72.4
2023-03-22T08:37:03.253Z,71.6
2023-03-22T08:38:02.050Z,71.9
2023-03-22T08:39:01.575Z,71.5
2023-03-22T08:40:03.757Z,72.2
2023-03-22T08:41:01.501Z,72
2023-03-22T08:42:01.986Z,71.1
2023-03-22T08:43:01.511Z,71.7
2023-03-22T08:44:01.883Z,71.4
2023-03-22T08:45:01.406Z,71.8
2023-03-22T08:46:01.939Z,70.3
2023-03-22T08:47:03.061Z,71.2
2023-03-22T08:48:01.828Z,71.2
2023-03-22T08:49:01.323Z,71
2023-03-22T08:50:01.818Z,71.2
2023-03-22T08:51:03.981Z,71.4
2023-03-22T08:52:01.791Z,71
2023-03-22T08:53:03.967Z,71.8
2023-03-22T08:54:01.721Z,70.9
2023-03-22T08:55:02.207Z,70.2
2023-03-22T08:56:03.333Z,70.1
2023-03-22T08:57:02.111Z,69.8
2023-03-22T08:58:03.317Z,70
2023-03-22T08:59:03.818Z,70.3
2023-03-22T09:00:01.562Z,71
2023-03-22T09:01:02.148Z,69.8
2023-03-22T09:02:03.327Z,69.9
2023-03-22T09:03:02.041Z,68.8
2023-03-22T09:04:01.525Z,68.8
2023-03-22T09:05:01.976Z,68.8
2023-03-22T09:06:01.487Z,69.2
2023-03-22T09:07:01.968Z,70
2023-03-22T09:08:06.301Z,68.5
2023-03-22T09:09:03.556Z,68.2
2023-03-22T09:10:01.323Z,66.3
2023-03-22T09:11:01.797Z,66.7
2023-03-22T09:12:02.267Z,67.8
2023-03-22T09:13:01.802Z,67.9
2023-03-22T09:14:02.292Z,66.9
2023-03-22T09:15:01.744Z,69
2023-03-22T09:16:02.250Z,67.8
2023-03-22T09:17:01.726Z,67.3
2023-03-22T09:18:02.207Z,68.1
2023-03-22T09:19:03.317Z,68.6
2023-03-22T09:20:12.016Z,68.5
2023-03-22T09:21:01.658Z,68.3
2023-03-22T09:22:02.119Z,68.7
2023-03-22T09:23:03.233Z,67.6
2023-03-22T09:24:02.034Z,68.7
2023-03-22T09:25:01.570Z,68.4
2023-03-22T09:26:02.069Z,67.9
2023-03-22T09:27:01.556Z,67.7
2023-03-22T09:28:02.026Z,70.2
2023-03-22T09:29:03.153Z,68.6
2023-03-22T09:30:01.960Z,68.2
2023-03-22T09:31:01.527Z,68.5
2023-03-22T09:32:01.955Z,69
2023-03-22T09:33:01.519Z,69.5
2023-03-22T09:34:01.864Z,69.7
2023-03-22T09:35:01.414Z,69.1
2023-03-22T09:36:03.717Z,69.4
2023-03-22T09:37:01.332Z,68.8
2023-03-22T09:38:01.801Z,68
2023-03-22T09:40:03.466Z,68.3
2023-03-22T09:41:02.283Z,68.6
2023-03-22T09:42:03.495Z,70.1
2023-03-22T09:43:02.270Z,68.1
2023-03-22T09:44:03.393Z,68.7
2023-03-22T09:45:02.197Z,69.1
2023-03-22T09:46:03.344Z,70
2023-03-22T09:47:02.224Z,70.3
2023-03-22T09:48:01.717Z,68.4
2023-03-22T09:49:03.794Z,69
2023-03-22T09:50:01.562Z,67.8
2023-03-22T09:51:03.706Z,69.9
2023-03-22T09:52:01.585Z,68.2
2023-03-22T09:53:02.051Z,67.9
2023-03-22T09:54:01.480Z,68
2023-03-22T09:55:03.681Z,66.3
2023-03-22T09:56:03.192Z,65.9
2023-03-22T09:57:03.572Z,68.1
2023-03-22T09:58:01.436Z,67.7
2023-03-22T09:59:01.893Z,67.6
2023-03-22T10:00:01.332Z,66
2023-03-22T10:01:01.933Z,67
2023-03-22T10:03:03.502Z,65
2023-03-22T10:04:02.340Z,67.3
2023-03-22T10:05:01.731Z,67.4
2023-03-22T10:06:02.302Z,65.5
2023-03-22T10:07:03.386Z,65.6
2023-03-22T10:08:03.875Z,65.6
2023-03-22T10:09:01.734Z,65.3
2023-03-22T10:10:02.229Z,65.6
2023-03-22T10:11:03.331Z,65
2023-03-22T10:12:02.134Z,64.5
2023-03-22T10:13:01.570Z,64.5
2023-03-22T10:14:02.047Z,64.9
2023-03-22T10:15:03.226Z,64.6
2023-03-22T10:16:03.724Z,64.8
2023-03-22T10:17:03.175Z,65.3
2023-03-22T10:18:01.960Z,65.4
2023-03-22T10:19:01.469Z,65
2023-03-22T10:20:01.950Z,65.5
2023-03-22T10:21:01.433Z,65.9
2023-03-22T10:22:03.570Z,65.9
2023-03-22T10:23:01.473Z,65.3
2023-03-22T10:24:03.579Z,65.7
2023-03-22T10:25:01.311Z,64.8
2023-03-22T10:26:01.799Z,64.4
2023-03-22T10:27:02.295Z,64.7
2023-03-22T10:28:01.797Z,65.4
2023-03-22T10:29:03.765Z,65.1
2023-03-22T10:30:03.401Z,64.9
2023-03-22T10:31:05.238Z,64.9
2023-03-22T10:32:01.710Z,64.5
2023-03-22T10:33:02.212Z,65.4
2023-03-22T10:34:01.638Z,64.8
2023-03-22T10:35:02.196Z,65.7
2023-03-22T10:36:01.686Z,65.5
2023-03-22T10:37:03.793Z,64.3
2023-03-22T10:38:03.234Z,63.7
2023-03-22T10:39:02.040Z,63.6
2023-03-22T10:40:01.567Z,63
2023-03-22T10:41:03.736Z,62.9
2023-03-22T10:42:03.143Z,64.1
2023-03-22T10:43:02.034Z,64
2023-03-22T10:44:01.466Z,64.8
2023-03-22T10:45:03.658Z,63.8
2023-03-22T10:46:01.392Z,64.2
2023-03-22T10:47:03.641Z,64.1
2023-03-22T10:48:01.529Z,62.6
2023-03-22T10:49:01.886Z,62.3
2023-03-22T10:50:01.315Z,63.5
2023-03-22T10:51:01.812Z,63.4
2023-03-22T10:53:01.857Z,62.7
2023-03-22T10:54:02.321Z,62.9
2023-03-22T10:55:04.467Z,63.4
2023-03-22T10:56:02.308Z,62.6
2023-03-22T10:57:01.729Z,62.2
2023-03-22T10:58:02.210Z,63.3
2023-03-22T10:59:03.395Z,64.8
2023-03-22T11:00:02.201Z,62.3
2023-03-22T11:01:01.759Z,62.2
2023-03-22T11:02:03.915Z,62.7
2023-03-22T11:03:03.442Z,63.1
2023-03-22T11:04:02.133Z,62.1
2023-03-22T11:05:01.579Z,62.2
2023-03-22T11:06:02.052Z,63.1
2023-03-22T11:07:01.564Z,64.1
2023-03-22T11:08:02.029Z,62.2
2023-03-22T11:09:01.504Z,61.3
2023-03-22T11:10:02.003Z,62.7
2023-03-22T11:11:01.479Z,61
2023-03-22T11:12:01.964Z,61.3
2023-03-22T11:13:01.578Z,60.7
2023-03-22T11:14:02.020Z,61.7
2023-03-22T11:15:01.395Z,62.3
2023-03-22T11:16:02.005Z,60.5
2023-03-22T11:17:01.439Z,61.3
2023-03-22T11:18:03.570Z,60.5
2023-03-22T11:19:01.303Z,60.8
2023-03-22T11:20:01.965Z,60.9
2023-03-22T11:21:01.318Z,61.1
2023-03-22T11:22:01.796Z,61.5
2023-03-22T11:23:02.262Z,61.3
2023-03-22T11:24:01.814Z,60.6
2023-03-22T11:25:03.945Z,61
2023-03-22T11:26:01.721Z,61.7
2023-03-22T11:27:02.200Z,61.1
2023-03-22T11:28:03.387Z,60.9
2023-03-22T11:29:02.209Z,62.2
2023-03-22T11:30:01.711Z,61.1
2023-03-22T11:31:02.206Z,59.6
2023-03-22T11:32:01.759Z,60.7
2023-03-22T11:33:03.864Z,62.4
2023-03-22T11:34:01.588Z,62.2
2023-03-22T11:35:02.029Z,61.7
2023-03-22T11:36:01.581Z,60.1
2023-03-22T11:37:02.051Z,59.2
2023-03-22T11:38:03.255Z,59.5
2023-03-22T11:39:02.033Z,60.3
2023-03-22T11:40:01.517Z,59.6
2023-03-22T11:41:01.991Z,59.9
2023-03-22T11:42:03.149Z,61.9
2023-03-22T11:43:01.884Z,60.6
2023-03-22T11:44:01.411Z,62.3
2023-03-22T11:45:01.905Z,61.1
2023-03-22T11:46:01.427Z,61.9
2023-03-22T11:47:01.928Z,59.4
2023-03-22T11:48:01.640Z,60
2023-03-22T11:49:03.548Z,59.3
2023-03-22T11:50:03.949Z,59.7
2023-03-22T11:51:01.791Z,58.8
2023-03-22T11:52:04.206Z,59.3
2023-03-22T11:53:01.715Z,60.2
2023-03-22T11:54:02.205Z,60
2023-03-22T11:55:01.721Z,60.4
2023-03-22T11:56:03.863Z,59.5
2023-03-22T11:57:01.762Z,59.3
2023-03-22T11:58:02.205Z,58.8
2023-03-22T11:59:01.657Z,58.7
2023-03-22T12:00:03.781Z,59.7
2023-03-22T12:01:03.240Z,58.7
2023-03-22T12:02:02.055Z,60.8
2023-03-22T12:03:01.630Z,60.4
2023-03-22T12:04:02.104Z,58.9
2023-03-22T12:05:01.548Z,60.2
2023-03-22T12:06:01.984Z,58.6
2023-03-22T12:07:03.214Z,58.9
2023-03-22T12:08:01.976Z,59.5
2023-03-22T12:09:01.417Z,59.5
2023-03-22T12:10:01.886Z,61.7
2023-03-22T12:11:01.358Z,61.9
2023-03-22T12:12:01.873Z,60.7
2023-03-22T12:14:01.802Z,62.2
2023-03-22T12:15:02.302Z,59.8
2023-03-22T12:16:01.845Z,57.8
2023-03-22T12:17:02.309Z,57.7
2023-03-22T12:18:01.791Z,59.1
2023-03-22T12:19:02.188Z,57.8
2023-03-22T12:20:01.720Z,58.2
2023-03-22T12:21:02.210Z,58.8
2023-03-22T12:22:01.666Z,57.7
2023-03-22T12:23:02.132Z,59.6
2023-03-22T12:24:03.365Z,58.9
2023-03-22T12:25:02.125Z,59.3
2023-03-22T12:26:01.644Z,58.6
2023-03-22T12:27:03.714Z,58.2
2023-03-22T12:28:01.555Z,58.9
2023-03-22T12:29:02.040Z,58.9
2023-03-22T12:30:01.514Z,57.9
2023-03-22T12:31:01.990Z,58.7
2023-03-22T12:32:03.080Z,58.3
2023-03-22T12:33:03.594Z,57.5
2023-03-22T12:34:01.399Z,56.2
2023-03-22T12:35:18.044Z,56.8
2023-03-22T12:36:01.349Z,56.7
2023-03-22T12:37:01.800Z,57.8
2023-03-22T12:38:03.988Z,58.9
2023-03-22T12:39:03.492Z,59.9
2023-03-22T12:40:03.962Z,60.5
2023-03-22T12:41:01.729Z,61.5
2023-03-22T12:42:03.874Z,62.2
2023-03-22T12:43:01.729Z,62.4
2023-03-22T12:44:03.899Z,63.7
2023-03-22T12:45:05.016Z,64.6
2023-03-22T12:46:02.128Z,65.4
2023-03-22T12:47:01.608Z,63.7
2023-03-22T12:48:02.162Z,64.5
2023-03-22T12:49:01.598Z,64.5
2023-03-22T12:50:02.055Z,63.9
2023-03-22T12:51:03.244Z,63.9
2023-03-22T12:52:02.035Z,63.7
2023-03-22T12:53:01.479Z,62.9
2023-03-22T12:54:02.894Z,63.6
2023-03-22T12:55:03.341Z,64.8
2023-03-22T12:56:02.117Z,63.2
2023-03-22T12:57:01.560Z,64.3
2023-03-22T12:58:03.824Z,63.7
2023-03-22T12:59:01.553Z,63.1
2023-03-22T13:00:02.038Z,63.3
2023-03-22T13:01:03.180Z,63.4
2023-03-22T13:02:01.953Z,62.7
2023-03-22T13:03:01.610Z,63
2023-03-22T13:04:03.726Z,63.8
2023-03-22T13:05:03.076Z,63.5
2023-03-22T13:06:01.886Z,64.2
2023-03-22T13:07:01.399Z,63.7
2023-03-22T13:08:03.601Z,63.6
2023-03-22T13:09:01.555Z,64
2023-03-22T13:10:01.820Z,64.4
2023-03-22T13:11:02.282Z,64.1
2023-03-22T13:12:03.480Z,63.3
2023-03-22T13:13:02.280Z,64
2023-03-22T13:14:01.756Z,64.5
2023-03-22T13:15:02.212Z,65.1
2023-03-22T13:16:03.368Z,64.9
2023-03-22T13:17:02.246Z,65.2
2023-03-22T13:18:01.682Z,64.8
2023-03-22T13:19:02.135Z,64.8
2023-03-22T13:20:03.324Z,64.7
2023-03-22T13:21:02.116Z,64.4
2023-03-22T13:22:01.555Z,64.3
2023-03-22T13:23:02.031Z,64.1
2023-03-22T13:24:01.556Z,64.3
2023-03-22T13:25:02.053Z,65
2023-03-22T13:26:03.155Z,65.4
2023-03-22T13:27:01.961Z,64.6
2023-03-22T13:28:01.429Z,65.2
2023-03-22T13:29:01.881Z,65.9
2023-03-22T13:30:01.429Z,65
2023-03-22T13:31:01.886Z,65.6
2023-03-22T13:32:01.439Z,66.6